Time,TemperatureF,DewpointF,PressureIn,WindDirection,WindDirectionDegrees,WindSpeedMPH,WindSpeedGustMPH,Humidity,HourlyPrecipIn,Conditions,Clouds,dailyrainin,SoftwareType,DateUTC
2013-05-12 00:01:00,41.8,26.7,30.01,NNE,23,6.9,6.9,55,0.00,,,0.00,WUHU216HW,2013-05-12 05:01:00,
2013-05-12 00:06:00,41.8,27.2,30.02,NNE,23,9.2,9.2,56,0.00,,,0.00,WUHU216HW,2013-05-12 05:06:00,
2013-05-12 00:11:00,41.9,27.3,30.02,North,0,5.4,9.2,56,0.00,,,0.00,WUHU216HW,2013-05-12 05:11:00,
2013-05-12 00:16:00,41.8,27.5,30.02,NNE,23,3.8,9.2,57,0.00,,,0.00,WUHU216HW,2013-05-12 05:16:00,
2013-05-12 00:21:00,41.6,28.7,30.02,NNW,338,4.3,8.9,60,0.00,,,0.00,WUHU216HW,2013-05-12 05:21:00,
2013-05-12 00:26:00,41.4,29.0,30.02,North,0,4.9,8.5,61,0.00,,,0.00,WUHU216HW,2013-05-12 05:26:00,
2013-05-12 00:31:00,41.4,29.3,30.02,North,0,4.9,8.5,62,0.00,,,0.00,WUHU216HW,2013-05-12 05:31:00,
2013-05-12 00:36:00,41.4,29.7,30.02,North,0,4.0,12.1,63,0.00,,,0.00,WUHU216HW,2013-05-12 05:36:00,
2013-05-12 00:41:00,41.2,30.3,30.02,North,0,4.9,12.1,65,0.00,,,0.00,WUHU216HW,2013-05-12 05:41:00,
2013-05-12 00:46:00,41.0,30.5,30.02,NNW,338,8.1,8.3,66,0.00,,,0.00,WUHU216HW,2013-05-12 05:46:00,
2013-05-12 00:51:00,41.0,30.5,30.02,North,0,5.6,8.3,66,0.00,,,0.00,WUHU216HW,2013-05-12 05:51:00,
2013-05-12 00:56:00,40.9,30.3,30.02,NNW,338,4.9,8.1,66,0.00,,,0.00,WUHU216HW,2013-05-12 05:56:00,
2013-05-12 01:01:00,40.9,30.7,30.02,North,0,5.6,7.6,67,0.00,,,0.00,WUHU216HW,2013-05-12 06:01:00,
2013-05-12 01:06:00,41.0,30.5,30.02,NE,45,5.8,8.9,66,0.00,,,0.00,WUHU216HW,2013-05-12 06:06:00,
2013-05-12 01:11:00,41.0,30.5,30.03,NNW,338,3.4,8.9,66,0.00,,,0.00,WUHU216HW,2013-05-12 06:11:00,
2013-05-12 01:16:00,41.0,30.5,30.03,North,0,3.8,8.7,66,0.00,,,0.00,WUHU216HW,2013-05-12 06:16:00,
2013-05-12 01:21:00,41.0,29.8,30.03,NW,315,3.6,8.9,64,0.00,,,0.00,WUHU216HW,2013-05-12 06:21:00,
2013-05-12 01:26:00,41.0,29.4,30.02,North,0,7.6,9.4,63,0.00,,,0.00,WUHU216HW,2013-05-12 06:26:00,
2013-05-12 01:31:00,41.0,29.0,30.02,North,0,8.9,9.4,62,0.00,,,0.00,WUHU216HW,2013-05-12 06:31:00,
2013-05-12 01:36:00,41.0,28.6,30.03,North,0,10.5,12.8,61,0.00,,,0.00,WUHU216HW,2013-05-12 06:36:00,
2013-05-12 01:41:00,41.0,28.3,30.02,North,0,10.3,12.8,60,0.00,,,0.00,WUHU216HW,2013-05-12 06:41:00,
2013-05-12 01:46:00,40.9,28.1,30.02,NNE,23,6.3,11.6,60,0.00,,,0.00,WUHU216HW,2013-05-12 06:46:00,
2013-05-12 01:51:00,40.7,28.3,30.03,NNE,23,6.9,11.9,61,0.00,,,0.00,WUHU216HW,2013-05-12 06:51:00,
2013-05-12 01:56:00,40.5,28.4,30.03,North,0,6.9,11.9,62,0.00,,,0.00,WUHU216HW,2013-05-12 06:56:00,
2013-05-12 02:01:00,40.1,28.5,30.03,NNW,338,6.9,9.8,63,0.00,,,0.00,WUHU216HW,2013-05-12 07:01:00,
2013-05-12 02:06:00,40.1,28.5,30.02,North,0,4.3,9.2,63,0.00,,,0.00,WUHU216HW,2013-05-12 07:06:00,
2013-05-12 02:11:00,40.0,28.4,30.02,NNW,338,4.9,9.2,63,0.00,,,0.00,WUHU216HW,2013-05-12 07:11:00,
2013-05-12 02:16:00,40.0,27.5,30.02,North,0,10.1,11.6,61,0.00,,,0.00,WUHU216HW,2013-05-12 07:16:00,
2013-05-12 02:21:00,40.0,27.5,30.02,North,0,6.7,11.6,61,0.00,,,0.00,WUHU216HW,2013-05-12 07:21:00,
2013-05-12 02:26:00,39.6,27.5,30.03,NNW,338,6.9,10.1,62,0.00,,,0.00,WUHU216HW,2013-05-12 07:26:00,
2013-05-12 02:31:00,39.4,27.4,30.03,North,0,8.3,11.9,62,0.00,,,0.00,WUHU216HW,2013-05-12 07:31:00,
2013-05-12 02:36:00,39.6,27.2,30.03,North,0,4.7,11.9,61,0.00,,,0.00,WUHU216HW,2013-05-12 07:36:00,
2013-05-12 02:41:00,39.2,27.2,30.03,NNE,23,5.4,10.1,62,0.00,,,0.00,WUHU216HW,2013-05-12 07:41:00,
2013-05-12 02:46:00,39.1,27.1,30.03,North,0,4.9,11.4,62,0.00,,,0.00,WUHU216HW,2013-05-12 07:46:00,
2013-05-12 02:51:00,38.9,26.9,30.03,North,0,6.5,11.4,62,0.00,,,0.00,WUHU216HW,2013-05-12 07:51:00,
2013-05-12 02:56:00,38.9,26.9,30.03,North,0,8.5,8.5,62,0.00,,,0.00,WUHU216HW,2013-05-12 07:56:00,
2013-05-12 03:01:00,38.9,26.6,30.03,NNW,338,9.2,12.1,61,0.00,,,0.00,WUHU216HW,2013-05-12 08:01:00,
2013-05-12 03:06:00,38.9,26.9,30.03,NNW,338,6.3,12.1,62,0.00,,,0.00,WUHU216HW,2013-05-12 08:06:00,
2013-05-12 03:11:00,38.7,26.7,30.03,NNW,338,8.1,9.2,62,0.00,,,0.00,WUHU216HW,2013-05-12 08:11:00,
2013-05-12 03:16:00,38.7,26.7,30.03,North,0,5.6,9.2,62,0.00,,,0.00,WUHU216HW,2013-05-12 08:16:00,
2013-05-12 03:21:00,38.3,26.8,30.03,NNE,23,9.6,9.6,63,0.00,,,0.00,WUHU216HW,2013-05-12 08:21:00,
2013-05-12 03:26:00,38.3,26.8,30.03,North,0,4.5,10.5,63,0.00,,,0.00,WUHU216HW,2013-05-12 08:26:00,
2013-05-12 03:31:00,38.2,26.7,30.03,North,0,5.8,10.5,63,0.00,,,0.00,WUHU216HW,2013-05-12 08:31:00,
2013-05-12 03:36:00,38.0,26.5,30.03,NNW,338,4.5,8.1,63,0.00,,,0.00,WUHU216HW,2013-05-12 08:36:00,
2013-05-12 03:41:00,37.8,26.3,30.03,NNW,338,5.6,8.1,63,0.00,,,0.00,WUHU216HW,2013-05-12 08:41:00,
2013-05-12 03:46:00,37.8,26.3,30.03,North,0,5.1,7.6,63,0.00,,,0.00,WUHU216HW,2013-05-12 08:46:00,
2013-05-12 03:51:00,37.6,26.1,30.03,North,0,9.2,10.7,63,0.00,,,0.00,WUHU216HW,2013-05-12 08:51:00,
2013-05-12 03:56:00,37.8,26.3,30.03,NNW,338,3.6,10.7,63,0.00,,,0.00,WUHU216HW,2013-05-12 08:56:00,
2013-05-12 04:01:00,37.4,26.4,30.03,NNE,23,3.6,9.2,64,0.00,,,0.00,WUHU216HW,2013-05-12 09:01:00,
2013-05-12 04:06:00,37.3,26.2,30.03,NNW,338,6.7,6.7,64,0.00,,,0.00,WUHU216HW,2013-05-12 09:06:00,
2013-05-12 04:11:00,37.3,26.2,30.03,North,0,7.6,8.1,64,0.00,,,0.00,WUHU216HW,2013-05-12 09:11:00,
2013-05-12 04:16:00,37.3,26.2,30.03,NNE,23,5.4,8.5,64,0.00,,,0.00,WUHU216HW,2013-05-12 09:16:00,
2013-05-12 04:21:00,37.3,26.2,30.04,NNW,338,5.4,8.5,64,0.00,,,0.00,WUHU216HW,2013-05-12 09:21:00,
2013-05-12 04:25:00,37.1,26.0,30.03,North,0,3.6,8.5,64,0.00,,,0.00,WUHU216HW,2013-05-12 09:25:00,
2013-05-12 04:30:00,37.1,26.0,30.04,North,0,4.7,8.5,64,0.00,,,0.00,WUHU216HW,2013-05-12 09:30:00,
2013-05-12 04:35:00,37.1,26.0,30.03,North,0,4.3,8.5,64,0.00,,,0.00,WUHU216HW,2013-05-12 09:35:00,
2013-05-12 04:40:00,37.1,25.7,30.03,NNE,23,6.0,10.7,63,0.00,,,0.00,WUHU216HW,2013-05-12 09:40:00,
2013-05-12 04:45:00,37.1,25.7,30.03,North,0,8.7,10.7,63,0.00,,,0.00,WUHU216HW,2013-05-12 09:45:00,
2013-05-12 04:50:00,36.9,25.5,30.04,NW,315,7.6,9.8,63,0.00,,,0.00,WUHU216HW,2013-05-12 09:50:00,
2013-05-12 04:55:00,36.7,25.3,30.04,North,0,8.5,9.8,63,0.00,,,0.00,WUHU216HW,2013-05-12 09:55:00,
2013-05-12 05:00:00,36.7,24.9,30.04,North,0,6.5,10.3,62,0.00,,,0.00,WUHU216HW,2013-05-12 10:00:00,
2013-05-12 05:05:00,36.7,24.6,30.04,NNE,23,4.5,10.3,61,0.00,,,0.00,WUHU216HW,2013-05-12 10:05:00,
2013-05-12 05:10:00,36.5,24.8,30.04,North,0,6.7,10.3,62,0.00,,,0.00,WUHU216HW,2013-05-12 10:10:00,
2013-05-12 05:15:00,36.5,24.4,30.04,NNW,338,6.3,9.6,61,0.00,,,0.00,WUHU216HW,2013-05-12 10:15:00,
2013-05-12 05:20:00,36.5,24.0,30.04,North,0,3.4,11.0,60,0.00,,,0.00,WUHU216HW,2013-05-12 10:20:00,
2013-05-12 05:25:00,36.2,24.5,30.04,NNW,338,7.6,11.0,62,0.00,,,0.00,WUHU216HW,2013-05-12 10:25:00,
2013-05-12 05:30:00,35.8,24.1,30.04,North,0,3.1,7.6,62,0.00,,,0.00,WUHU216HW,2013-05-12 10:30:00,
2013-05-12 05:35:00,35.8,24.1,30.04,North,0,3.4,8.3,62,0.00,,,0.00,WUHU216HW,2013-05-12 10:35:00,
2013-05-12 05:40:00,35.6,24.3,30.04,NNE,23,6.9,8.3,63,0.00,,,0.00,WUHU216HW,2013-05-12 10:40:00,
2013-05-12 05:45:00,35.5,24.1,30.05,North,0,2.9,6.9,63,0.00,,,0.00,WUHU216HW,2013-05-12 10:45:00,
2013-05-12 05:50:00,35.3,24.3,30.05,North,0,3.4,6.9,64,0.00,,,0.00,WUHU216HW,2013-05-12 10:50:00,
2013-05-12 05:55:00,35.1,24.5,30.05,North,0,2.9,5.4,65,0.00,,,0.00,WUHU216HW,2013-05-12 10:55:00,
2013-05-12 06:00:00,34.9,24.3,30.05,North,0,2.7,5.4,65,0.00,,,0.00,WUHU216HW,2013-05-12 11:00:00,
2013-05-12 06:05:00,34.9,24.7,30.05,North,0,3.4,6.3,66,0.00,,,0.00,WUHU216HW,2013-05-12 11:05:00,
2013-05-12 06:10:00,34.9,24.7,30.05,North,0,2.2,6.3,66,0.00,,,0.00,WUHU216HW,2013-05-12 11:10:00,
2013-05-12 06:15:00,34.9,24.7,30.05,North,0,4.5,4.5,66,0.00,,,0.00,WUHU216HW,2013-05-12 11:15:00,
2013-05-12 06:20:00,35.1,24.8,30.05,NNE,23,4.3,5.6,66,0.00,,,0.00,WUHU216HW,2013-05-12 11:20:00,
2013-05-12 06:25:00,35.3,25.0,30.05,North,0,2.5,5.6,66,0.00,,,0.00,WUHU216HW,2013-05-12 11:25:00,
2013-05-12 06:30:00,35.5,25.6,30.05,North,0,3.1,4.9,67,0.00,,,0.00,WUHU216HW,2013-05-12 11:30:00,
2013-05-12 06:35:00,35.6,25.7,30.06,North,0,4.0,5.4,67,0.00,,,0.00,WUHU216HW,2013-05-12 11:35:00,
2013-05-12 06:40:00,36.0,26.1,30.06,NNE,23,4.0,6.3,67,0.00,,,0.00,WUHU216HW,2013-05-12 11:40:00,
2013-05-12 06:45:00,36.4,26.5,30.06,North,0,5.8,6.3,67,0.00,,,0.00,WUHU216HW,2013-05-12 11:45:00,
2013-05-12 06:50:00,36.7,26.8,30.06,NNE,23,5.1,6.9,67,0.00,,,0.00,WUHU216HW,2013-05-12 11:50:00,
2013-05-12 06:55:00,37.1,26.7,30.06,NNE,23,6.0,6.9,66,0.00,,,0.00,WUHU216HW,2013-05-12 11:55:00,
2013-05-12 07:00:00,37.1,26.7,30.06,North,0,6.9,8.3,66,0.00,,,0.00,WUHU216HW,2013-05-12 12:00:00,
2013-05-12 07:05:00,37.3,26.9,30.06,NE,45,4.7,9.8,66,0.00,,,0.00,WUHU216HW,2013-05-12 12:05:00,
2013-05-12 07:10:00,37.4,26.7,30.06,North,0,8.3,10.7,65,0.00,,,0.00,WUHU216HW,2013-05-12 12:10:00,
2013-05-12 07:15:00,37.6,26.1,30.07,NNW,338,6.9,10.7,63,0.00,,,0.00,WUHU216HW,2013-05-12 12:15:00,
2013-05-12 07:20:00,37.8,26.3,30.07,NNW,338,9.6,11.0,63,0.00,,,0.00,WUHU216HW,2013-05-12 12:20:00,
2013-05-12 07:25:00,37.8,26.3,30.07,North,0,13.6,13.6,63,0.00,,,0.00,WUHU216HW,2013-05-12 12:25:00,
2013-05-12 07:30:00,37.8,25.9,30.07,NNE,23,8.9,16.1,62,0.00,,,0.00,WUHU216HW,2013-05-12 12:30:00,
2013-05-12 07:35:00,37.8,25.2,30.07,NNE,23,7.6,16.1,60,0.00,,,0.00,WUHU216HW,2013-05-12 12:35:00,
2013-05-12 07:40:00,38.0,25.3,30.07,NNE,23,11.0,13.2,60,0.00,,,0.00,WUHU216HW,2013-05-12 12:40:00,
2013-05-12 07:45:00,38.2,25.8,30.07,NNW,338,8.5,12.8,61,0.00,,,0.00,WUHU216HW,2013-05-12 12:45:00,
2013-05-12 07:50:00,38.5,25.8,30.07,NNW,338,5.8,12.3,60,0.00,,,0.00,WUHU216HW,2013-05-12 12:50:00,
2013-05-12 07:55:00,38.7,26.0,30.07,NNE,23,9.2,10.7,60,0.00,,,0.00,WUHU216HW,2013-05-12 12:55:00,
2013-05-12 08:00:00,38.7,25.6,30.07,North,0,9.2,11.6,59,0.00,,,0.00,WUHU216HW,2013-05-12 13:00:00,
2013-05-12 08:05:00,38.9,25.8,30.07,NNE,23,11.4,11.6,59,0.00,,,0.00,WUHU216HW,2013-05-12 13:05:00,
2013-05-12 08:10:00,39.2,25.6,30.07,NNW,338,7.6,12.1,58,0.00,,,0.00,WUHU216HW,2013-05-12 13:10:00,
2013-05-12 08:15:00,40.0,25.8,30.08,NNW,338,9.6,12.1,57,0.00,,,0.00,WUHU216HW,2013-05-12 13:15:00,
2013-05-12 08:20:00,40.1,25.6,30.08,NNE,23,8.3,13.4,56,0.00,,,0.00,WUHU216HW,2013-05-12 13:20:00,
2013-05-12 08:25:00,40.3,25.7,30.08,North,0,5.8,13.4,56,0.00,,,0.00,WUHU216HW,2013-05-12 13:25:00,
2013-05-12 08:30:00,40.5,25.5,30.07,North,0,7.4,12.1,55,0.00,,,0.00,WUHU216HW,2013-05-12 13:30:00,
2013-05-12 08:35:00,40.7,26.1,30.07,North,0,11.6,13.4,56,0.00,,,0.00,WUHU216HW,2013-05-12 13:35:00,
2013-05-12 08:40:00,40.7,26.6,30.07,NNE,23,9.8,13.4,57,0.00,,,0.00,WUHU216HW,2013-05-12 13:40:00,
2013-05-12 08:45:00,41.0,26.9,30.07,NNW,338,11.0,13.2,57,0.00,,,0.00,WUHU216HW,2013-05-12 13:45:00,
2013-05-12 08:50:00,40.9,27.2,30.07,North,0,7.2,13.2,58,0.00,,,0.00,WUHU216HW,2013-05-12 13:50:00,
2013-05-12 08:55:00,41.0,26.9,30.07,NNE,23,8.7,12.5,57,0.00,,,0.00,WUHU216HW,2013-05-12 13:55:00,
2013-05-12 09:00:00,41.0,26.9,30.07,North,0,7.6,13.4,57,0.00,,,0.00,WUHU216HW,2013-05-12 14:00:00,
2013-05-12 09:05:00,41.4,27.7,30.07,North,0,5.4,13.4,58,0.00,,,0.00,WUHU216HW,2013-05-12 14:05:00,
2013-05-12 09:10:00,41.6,27.5,30.08,North,0,7.8,13.4,57,0.00,,,0.00,WUHU216HW,2013-05-12 14:10:00,
2013-05-12 09:15:00,41.8,27.2,30.08,NNW,338,6.0,13.4,56,0.00,,,0.00,WUHU216HW,2013-05-12 14:15:00,
2013-05-12 09:20:00,42.1,27.5,30.08,North,0,6.9,12.3,56,0.00,,,0.00,WUHU216HW,2013-05-12 14:20:00,
2013-05-12 09:25:00,42.1,27.5,30.08,NNE,23,7.6,12.3,56,0.00,,,0.00,WUHU216HW,2013-05-12 14:25:00,
2013-05-12 09:30:00,42.1,27.5,30.08,NNE,23,8.5,14.5,56,0.00,,,0.00,WUHU216HW,2013-05-12 14:30:00,
2013-05-12 09:35:00,42.1,26.7,30.08,North,0,12.1,14.5,54,0.00,,,0.00,WUHU216HW,2013-05-12 14:35:00,
2013-05-12 09:40:00,42.5,27.8,30.08,NNW,338,9.8,12.8,56,0.00,,,0.00,WUHU216HW,2013-05-12 14:40:00,
2013-05-12 09:45:00,42.8,27.7,30.08,North,0,8.5,12.8,55,0.00,,,0.00,WUHU216HW,2013-05-12 14:45:00,
2013-05-12 09:50:00,42.8,28.6,30.08,NNW,338,8.5,12.8,57,0.00,,,0.00,WUHU216HW,2013-05-12 14:50:00,
2013-05-12 09:55:00,43.4,28.7,30.08,NNW,338,7.6,15.7,56,0.00,,,0.00,WUHU216HW,2013-05-12 14:55:00,
2013-05-12 10:00:00,43.6,27.6,30.08,North,0,3.4,15.7,53,0.00,,,0.00,WUHU216HW,2013-05-12 15:00:00,
2013-05-12 10:05:00,43.6,27.6,30.09,NNW,338,8.1,12.8,53,0.00,,,0.00,WUHU216HW,2013-05-12 15:05:00,
2013-05-12 10:10:00,43.7,27.7,30.08,North,0,9.8,13.4,53,0.00,,,0.00,WUHU216HW,2013-05-12 15:10:00,
2013-05-12 10:15:00,44.3,28.6,30.08,North,0,9.6,13.4,54,0.00,,,0.00,WUHU216HW,2013-05-12 15:15:00,
2013-05-12 10:20:00,43.9,27.5,30.09,NNE,23,2.5,11.4,52,0.00,,,0.00,WUHU216HW,2013-05-12 15:20:00,
2013-05-12 10:25:00,44.3,27.7,30.09,NNE,23,5.8,13.2,52,0.00,,,0.00,WUHU216HW,2013-05-12 15:25:00,
2013-05-12 10:30:00,45.0,29.8,30.08,North,0,10.5,13.2,55,0.00,,,0.00,WUHU216HW,2013-05-12 15:30:00,
2013-05-12 10:35:00,45.4,29.2,30.08,NNW,338,6.9,11.4,53,0.00,,,0.00,WUHU216HW,2013-05-12 15:35:00,
2013-05-12 10:40:00,45.4,28.3,30.08,NW,315,8.3,14.8,51,0.00,,,0.00,WUHU216HW,2013-05-12 15:40:00,
2013-05-12 10:45:00,45.0,28.9,30.08,NNE,23,4.9,14.8,53,0.00,,,0.00,WUHU216HW,2013-05-12 15:45:00,
2013-05-12 10:50:00,45.9,29.7,30.08,North,0,8.9,12.1,53,0.00,,,0.00,WUHU216HW,2013-05-12 15:50:00,
2013-05-12 10:55:00,46.4,30.2,30.08,NNE,23,10.7,13.4,53,0.00,,,0.00,WUHU216HW,2013-05-12 15:55:00,
2013-05-12 11:00:00,47.0,30.3,30.08,North,0,6.3,13.4,52,0.00,,,0.00,WUHU216HW,2013-05-12 16:00:00,
2013-05-12 11:05:00,47.0,29.3,30.09,NE,45,4.7,12.1,50,0.00,,,0.00,WUHU216HW,2013-05-12 16:05:00,
2013-05-12 11:10:00,47.2,29.4,30.09,NNE,23,8.1,12.5,50,0.00,,,0.00,WUHU216HW,2013-05-12 16:10:00,
2013-05-12 11:15:00,47.2,29.4,30.08,North,0,9.4,14.8,50,0.00,,,0.00,WUHU216HW,2013-05-12 16:15:00,
2013-05-12 11:20:00,47.3,29.6,30.09,North,0,12.5,14.8,50,0.00,,,0.00,WUHU216HW,2013-05-12 16:20:00,
2013-05-12 11:25:00,47.9,29.5,30.08,North,0,8.5,12.5,49,0.00,,,0.00,WUHU216HW,2013-05-12 16:25:00,
2013-05-12 11:30:00,47.9,29.0,30.08,NE,45,3.4,14.3,48,0.00,,,0.00,WUHU216HW,2013-05-12 16:30:00,
2013-05-12 11:35:00,48.1,30.2,30.08,NNW,338,8.5,14.3,50,0.00,,,0.00,WUHU216HW,2013-05-12 16:35:00,
2013-05-12 11:40:00,48.1,31.2,30.08,North,0,8.7,9.8,52,0.00,,,0.00,WUHU216HW,2013-05-12 16:40:00,
2013-05-12 11:45:00,48.1,30.7,30.08,North,0,7.8,12.1,51,0.00,,,0.00,WUHU216HW,2013-05-12 16:45:00,
2013-05-12 11:50:00,49.0,31.6,30.08,North,0,7.8,12.1,51,0.00,,,0.00,WUHU216HW,2013-05-12 16:50:00,
2013-05-12 11:55:00,48.1,28.1,30.08,NE,45,11.4,14.1,46,0.00,,,0.00,WUHU216HW,2013-05-12 16:55:00,
2013-05-12 12:00:00,47.9,29.5,30.08,North,0,8.3,14.1,49,0.00,,,0.00,WUHU216HW,2013-05-12 17:00:00,
2013-05-12 12:05:00,49.0,29.5,30.08,North,0,12.5,14.3,47,0.00,,,0.00,WUHU216HW,2013-05-12 17:05:00,
2013-05-12 12:10:00,49.9,31.0,30.08,NNE,23,7.8,14.3,48,0.00,,,0.00,WUHU216HW,2013-05-12 17:10:00,
2013-05-12 12:15:00,49.1,28.0,30.08,NW,315,5.6,12.5,44,0.00,,,0.00,WUHU216HW,2013-05-12 17:15:00,
2013-05-12 12:20:00,49.3,27.6,30.08,NW,315,6.9,11.4,43,0.00,,,0.00,WUHU216HW,2013-05-12 17:20:00,
2013-05-12 12:25:00,49.7,27.5,30.07,North,0,3.4,11.4,42,0.00,,,0.00,WUHU216HW,2013-05-12 17:25:00,
2013-05-12 12:30:00,49.9,28.7,30.07,North,0,4.7,9.8,44,0.00,,,0.00,WUHU216HW,2013-05-12 17:30:00,
2013-05-12 12:35:00,50.8,28.5,30.07,NW,315,2.5,13.4,42,0.00,,,0.00,WUHU216HW,2013-05-12 17:35:00,
2013-05-12 12:40:00,50.0,27.2,30.07,North,0,18.1,18.1,41,0.00,,,0.00,WUHU216HW,2013-05-12 17:40:00,
2013-05-12 12:45:00,50.4,28.6,30.07,NNE,23,8.1,18.1,43,0.00,,,0.00,WUHU216HW,2013-05-12 17:45:00,
2013-05-12 12:50:00,50.8,29.0,30.07,NNW,338,12.8,12.8,43,0.00,,,0.00,WUHU216HW,2013-05-12 17:50:00,
2013-05-12 12:55:00,50.8,28.5,30.07,NNE,23,4.3,12.8,42,0.00,,,0.00,WUHU216HW,2013-05-12 17:55:00,
2013-05-12 13:00:00,51.3,29.4,30.07,NNW,338,6.3,12.8,43,0.00,,,0.00,WUHU216HW,2013-05-12 18:00:00,
2013-05-12 13:05:00,51.7,29.8,30.07,NNE,23,12.8,12.8,43,0.00,,,0.00,WUHU216HW,2013-05-12 18:05:00,
2013-05-12 13:10:00,50.8,29.5,30.07,NE,45,9.2,15.2,44,0.00,,,0.00,WUHU216HW,2013-05-12 18:10:00,
2013-05-12 13:15:00,51.3,28.9,30.07,NNE,23,7.4,15.2,42,0.00,,,0.00,WUHU216HW,2013-05-12 18:15:00,
2013-05-12 13:20:00,51.7,29.3,30.07,NNE,23,8.5,14.1,42,0.00,,,0.00,WUHU216HW,2013-05-12 18:20:00,
2013-05-12 13:25:00,51.3,27.8,30.07,NNE,23,4.3,14.1,40,0.00,,,0.00,WUHU216HW,2013-05-12 18:25:00,
2013-05-12 13:30:00,51.7,28.6,30.07,North,0,9.8,12.8,41,0.00,,,0.00,WUHU216HW,2013-05-12 18:30:00,
2013-05-12 13:35:00,52.2,29.7,30.07,North,0,7.2,12.1,42,0.00,,,0.00,WUHU216HW,2013-05-12 18:35:00,
2013-05-12 13:40:00,51.8,28.8,30.07,North,0,9.8,12.1,41,0.00,,,0.00,WUHU216HW,2013-05-12 18:40:00,
2013-05-12 13:45:00,52.6,29.4,30.06,NW,315,6.9,13.4,41,0.00,,,0.00,WUHU216HW,2013-05-12 18:45:00,
2013-05-12 13:50:00,52.9,29.8,30.06,NNW,338,7.4,13.4,41,0.00,,,0.00,WUHU216HW,2013-05-12 18:50:00,
2013-05-12 13:55:00,53.1,29.4,30.06,North,0,4.3,11.9,40,0.00,,,0.00,WUHU216HW,2013-05-12 18:55:00,
2013-05-12 14:00:00,53.3,28.2,30.06,North,0,10.5,11.9,38,0.00,,,0.00,WUHU216HW,2013-05-12 19:00:00,
2013-05-12 14:05:00,52.9,29.3,30.06,NNW,338,6.5,12.8,40,0.00,,,0.00,WUHU216HW,2013-05-12 19:05:00,
2013-05-12 14:10:00,53.8,29.3,30.06,North,0,9.6,13.0,39,0.00,,,0.00,WUHU216HW,2013-05-12 19:10:00,
2013-05-12 14:15:00,53.6,28.5,30.05,ENE,68,5.1,14.8,38,0.00,,,0.00,WUHU216HW,2013-05-12 19:15:00,
2013-05-12 14:20:00,53.6,29.2,30.05,WSW,248,2.5,14.8,39,0.00,,,0.00,WUHU216HW,2013-05-12 19:20:00,
2013-05-12 14:25:00,53.8,27.3,30.05,NNW,338,8.3,10.5,36,0.00,,,0.00,WUHU216HW,2013-05-12 19:25:00,
2013-05-12 14:30:00,54.2,26.2,30.05,NE,45,6.3,11.4,34,0.00,,,0.00,WUHU216HW,2013-05-12 19:30:00,
2013-05-12 14:35:00,54.2,29.7,30.05,North,0,7.4,11.4,39,0.00,,,0.00,WUHU216HW,2013-05-12 19:35:00,
2013-05-12 14:40:00,54.4,29.9,30.05,NNW,338,2.7,9.8,39,0.00,,,0.00,WUHU216HW,2013-05-12 19:40:00,
2013-05-12 14:45:00,54.0,28.2,30.05,North,0,8.7,11.4,37,0.00,,,0.00,WUHU216HW,2013-05-12 19:45:00,
2013-05-12 14:50:00,54.2,27.6,30.05,North,0,7.2,11.4,36,0.00,,,0.00,WUHU216HW,2013-05-12 19:50:00,
2013-05-12 14:55:00,54.4,28.4,30.05,North,0,8.1,12.1,37,0.00,,,0.00,WUHU216HW,2013-05-12 19:55:00,
2013-05-12 15:00:00,54.5,27.9,30.05,North,0,4.9,13.4,36,0.00,,,0.00,WUHU216HW,2013-05-12 20:00:00,
2013-05-12 15:05:00,55.1,30.5,30.05,NNW,338,6.9,13.4,39,0.00,,,0.00,WUHU216HW,2013-05-12 20:05:00,
2013-05-12 15:10:00,54.7,28.1,30.05,North,0,7.6,12.5,36,0.00,,,0.00,WUHU216HW,2013-05-12 20:10:00,
2013-05-12 15:15:00,55.1,26.3,30.05,NE,45,13.9,13.9,33,0.00,,,0.00,WUHU216HW,2013-05-12 20:15:00,
2013-05-12 15:20:00,54.9,26.8,30.04,North,0,5.6,13.9,34,0.00,,,0.00,WUHU216HW,2013-05-12 20:20:00,
2013-05-12 15:25:00,55.4,28.7,30.04,North,0,6.9,11.4,36,0.00,,,0.00,WUHU216HW,2013-05-12 20:25:00,
2013-05-12 15:30:00,56.0,27.8,30.04,North,0,9.8,11.0,34,0.00,,,0.00,WUHU216HW,2013-05-12 20:30:00,
2013-05-12 15:35:00,56.3,28.1,30.04,North,0,6.0,11.0,34,0.00,,,0.00,WUHU216HW,2013-05-12 20:35:00,
2013-05-12 15:40:00,56.2,27.9,30.04,NNW,338,15.0,15.0,34,0.00,,,0.00,WUHU216HW,2013-05-12 20:40:00,
2013-05-12 15:45:00,56.5,28.3,30.04,North,0,8.5,15.0,34,0.00,,,0.00,WUHU216HW,2013-05-12 20:45:00,
2013-05-12 15:50:00,56.3,28.1,30.04,North,0,4.7,15.0,34,0.00,,,0.00,WUHU216HW,2013-05-12 20:50:00,
2013-05-12 15:55:00,55.8,25.5,30.04,NNW,338,9.2,10.5,31,0.00,,,0.00,WUHU216HW,2013-05-12 20:55:00,
2013-05-12 16:00:00,55.1,24.9,30.04,North,0,8.5,15.4,31,0.00,,,0.00,WUHU216HW,2013-05-12 21:00:00,
2013-05-12 16:05:00,54.9,25.5,30.04,NNW,338,4.5,15.4,32,0.00,,,0.00,WUHU216HW,2013-05-12 21:05:00,
2013-05-12 16:10:00,55.6,26.0,30.04,North,0,3.6,15.4,32,0.00,,,0.00,WUHU216HW,2013-05-12 21:10:00,
2013-05-12 16:15:00,55.4,25.9,30.04,NNE,23,4.0,15.4,32,0.00,,,0.00,WUHU216HW,2013-05-12 21:15:00,
2013-05-12 16:20:00,56.3,26.7,30.03,North,0,3.4,7.8,32,0.00,,,0.00,WUHU216HW,2013-05-12 21:20:00,
2013-05-12 16:25:00,56.7,27.7,30.03,NNE,23,5.8,8.3,33,0.00,,,0.00,WUHU216HW,2013-05-12 21:25:00,
2013-05-12 16:30:00,54.7,24.6,30.04,North,0,8.1,11.6,31,0.00,,,0.00,WUHU216HW,2013-05-12 21:30:00,
2013-05-12 16:35:00,55.6,26.7,30.03,NNE,23,11.9,11.9,33,0.00,,,0.00,WUHU216HW,2013-05-12 21:35:00,
2013-05-12 16:40:00,54.2,24.8,30.03,NNE,23,7.8,12.8,32,0.00,,,0.00,WUHU216HW,2013-05-12 21:40:00,
2013-05-12 16:45:00,53.8,25.9,30.03,North,0,8.1,12.8,34,0.00,,,0.00,WUHU216HW,2013-05-12 21:45:00,
2013-05-12 16:50:00,55.6,26.0,30.03,NNW,338,8.7,13.4,32,0.00,,,0.00,WUHU216HW,2013-05-12 21:50:00,
2013-05-12 16:55:00,55.4,25.2,30.03,North,0,11.0,13.4,31,0.00,,,0.00,WUHU216HW,2013-05-12 21:55:00,
2013-05-12 17:00:00,56.0,26.4,30.03,North,0,8.5,11.0,32,0.00,,,0.00,WUHU216HW,2013-05-12 22:00:00,
2013-05-12 17:05:00,56.5,26.8,30.03,NNW,338,6.5,11.0,32,0.00,,,0.00,WUHU216HW,2013-05-12 22:05:00,
2013-05-12 17:10:00,57.1,27.4,30.03,North,0,7.4,8.5,32,0.00,,,0.00,WUHU216HW,2013-05-12 22:10:00,
2013-05-12 17:15:00,56.3,26.0,30.03,NNW,338,7.6,12.8,31,0.00,,,0.00,WUHU216HW,2013-05-12 22:15:00,
2013-05-12 17:20:00,56.3,25.3,30.03,NNW,338,1.6,12.8,30,0.00,,,0.00,WUHU216HW,2013-05-12 22:20:00,
2013-05-12 17:25:00,56.3,26.0,30.03,NNW,338,6.3,12.1,31,0.00,,,0.00,WUHU216HW,2013-05-12 22:25:00,
2013-05-12 17:30:00,56.0,25.7,30.03,North,0,7.8,12.1,31,0.00,,,0.00,WUHU216HW,2013-05-12 22:30:00,
2013-05-12 17:35:00,55.3,25.8,30.03,North,0,5.4,10.3,32,0.00,,,0.00,WUHU216HW,2013-05-12 22:35:00,
2013-05-12 17:40:00,55.4,26.6,30.03,North,0,4.5,10.1,33,0.00,,,0.00,WUHU216HW,2013-05-12 22:40:00,
2013-05-12 17:45:00,55.8,25.5,30.03,NNW,338,2.2,9.2,31,0.00,,,0.00,WUHU216HW,2013-05-12 22:45:00,
2013-05-12 17:50:00,54.9,24.8,30.03,NNW,338,5.4,10.7,31,0.00,,,0.00,WUHU216HW,2013-05-12 22:50:00,
2013-05-12 17:55:00,54.2,24.1,30.03,NNE,23,10.5,12.1,31,0.00,,,0.00,WUHU216HW,2013-05-12 22:55:00,
2013-05-12 18:00:00,53.6,25.7,30.03,NNE,23,5.1,12.1,34,0.00,,,0.00,WUHU216HW,2013-05-12 23:00:00,
2013-05-12 18:05:00,53.6,27.2,30.03,North,0,6.5,10.7,36,0.00,,,0.00,WUHU216HW,2013-05-12 23:05:00,
2013-05-12 18:10:00,52.9,23.8,30.03,NNE,23,7.6,12.1,32,0.00,,,0.00,WUHU216HW,2013-05-12 23:10:00,
2013-05-12 18:15:00,52.9,25.1,30.03,NNE,23,4.9,12.1,34,0.00,,,0.00,WUHU216HW,2013-05-12 23:15:00,
2013-05-12 18:20:00,53.1,24.0,30.03,North,0,8.1,9.4,32,0.00,,,0.00,WUHU216HW,2013-05-12 23:20:00,
2013-05-12 18:25:00,52.9,24.5,30.03,North,0,6.9,12.1,33,0.00,,,0.00,WUHU216HW,2013-05-12 23:25:00,
2013-05-12 18:30:00,52.7,24.3,30.02,NNE,23,3.8,12.1,33,0.00,,,0.00,WUHU216HW,2013-05-12 23:30:00,
2013-05-12 18:35:00,52.7,24.3,30.02,NNE,23,6.9,10.1,33,0.00,,,0.00,WUHU216HW,2013-05-12 23:35:00,
2013-05-12 18:40:00,52.6,24.9,30.02,North,0,5.6,8.7,34,0.00,,,0.00,WUHU216HW,2013-05-12 23:40:00,
2013-05-12 18:45:00,52.6,24.1,30.02,North,0,6.9,8.7,33,0.00,,,0.00,WUHU216HW,2013-05-12 23:45:00,
2013-05-12 18:50:00,52.6,23.4,30.02,North,0,5.1,8.5,32,0.00,,,0.00,WUHU216HW,2013-05-12 23:50:00,
2013-05-12 18:55:00,52.4,25.3,30.02,North,0,4.5,9.2,35,0.00,,,0.00,WUHU216HW,2013-05-12 23:55:00,
2013-05-12 19:00:00,52.2,23.8,30.02,NNE,23,8.7,9.2,33,0.00,,,0.00,WUHU216HW,2013-05-13 00:00:00,
2013-05-12 19:05:00,52.0,23.7,30.02,North,0,6.7,8.7,33,0.00,,,0.00,WUHU216HW,2013-05-13 00:05:00,
2013-05-12 19:10:00,51.7,23.3,30.02,North,0,6.9,9.2,33,0.00,,,0.00,WUHU216HW,2013-05-13 00:10:00,
2013-05-12 19:15:00,51.5,23.9,30.02,NNW,338,5.4,9.2,34,0.00,,,0.00,WUHU216HW,2013-05-13 00:15:00,
2013-05-12 19:20:00,51.5,24.5,30.02,NNW,338,3.8,8.5,35,0.00,,,0.00,WUHU216HW,2013-05-13 00:20:00,
2013-05-12 19:25:00,51.5,23.9,30.02,North,0,7.6,8.5,34,0.00,,,0.00,WUHU216HW,2013-05-13 00:25:00,
2013-05-12 19:30:00,51.1,23.5,30.03,NNW,338,4.7,9.8,34,0.00,,,0.00,WUHU216HW,2013-05-13 00:30:00,
2013-05-12 19:35:00,50.9,24.8,30.03,NNW,338,3.4,9.8,36,0.00,,,0.00,WUHU216HW,2013-05-13 00:35:00,
2013-05-12 19:40:00,50.8,24.6,30.03,North,0,7.2,8.1,36,0.00,,,0.00,WUHU216HW,2013-05-13 00:40:00,
2013-05-12 19:45:00,50.4,24.2,30.03,NNW,338,4.5,7.2,36,0.00,,,0.00,WUHU216HW,2013-05-13 00:45:00,
2013-05-12 19:50:00,50.4,24.9,30.02,North,0,3.6,7.2,37,0.00,,,0.00,WUHU216HW,2013-05-13 00:50:00,
2013-05-12 19:55:00,50.0,24.0,30.03,NNE,23,5.1,8.1,36,0.00,,,0.00,WUHU216HW,2013-05-13 00:55:00,
2013-05-12 20:00:00,49.9,24.4,30.03,NNW,338,4.3,8.1,37,0.00,,,0.00,WUHU216HW,2013-05-13 01:00:00,
2013-05-12 20:05:00,49.5,24.1,30.03,North,0,3.4,6.9,37,0.00,,,0.00,WUHU216HW,2013-05-13 01:05:00,
2013-05-12 20:10:00,49.3,23.9,30.03,North,0,4.7,6.9,37,0.00,,,0.00,WUHU216HW,2013-05-13 01:10:00,
2013-05-12 20:15:00,49.0,24.3,30.03,North,0,3.8,6.3,38,0.00,,,0.00,WUHU216HW,2013-05-13 01:15:00,
2013-05-12 20:20:00,48.6,24.0,30.03,North,0,4.7,5.8,38,0.00,,,0.00,WUHU216HW,2013-05-13 01:20:00,
2013-05-12 20:25:00,48.2,23.7,30.03,NNE,23,4.0,5.8,38,0.00,,,0.00,WUHU216HW,2013-05-13 01:25:00,
2013-05-12 20:30:00,47.9,24.0,30.04,North,0,2.5,4.7,39,0.00,,,0.00,WUHU216HW,2013-05-13 01:30:00,
2013-05-12 20:35:00,47.3,23.6,30.04,NNE,23,1.6,4.0,39,0.00,,,0.00,WUHU216HW,2013-05-13 01:35:00,
2013-05-12 20:40:00,47.2,24.0,30.04,NNW,338,2.5,3.1,40,0.00,,,0.00,WUHU216HW,2013-05-13 01:40:00,
2013-05-12 20:45:00,47.0,24.4,30.04,North,0,2.0,3.1,41,0.00,,,0.00,WUHU216HW,2013-05-13 01:45:00,
2013-05-12 20:50:00,46.4,24.5,30.04,North,0,2.0,2.5,42,0.00,,,0.00,WUHU216HW,2013-05-13 01:50:00,
2013-05-12 20:55:00,46.1,24.7,30.04,North,0,2.5,2.5,43,0.00,,,0.00,WUHU216HW,2013-05-13 01:55:00,
2013-05-12 21:00:00,45.4,25.1,30.04,North,0,1.3,2.5,45,0.00,,,0.00,WUHU216HW,2013-05-13 02:00:00,
2013-05-12 21:05:00,44.6,25.0,30.05,North,0,1.3,2.5,46,0.00,,,0.00,WUHU216HW,2013-05-13 02:05:00,
2013-05-12 21:10:00,44.3,24.7,30.05,North,0,0.9,2.0,46,0.00,,,0.00,WUHU216HW,2013-05-13 02:10:00,
2013-05-12 21:15:00,44.3,24.7,30.05,North,0,1.3,1.6,46,0.00,,,0.00,WUHU216HW,2013-05-13 02:15:00,
2013-05-12 21:20:00,44.1,25.1,30.05,North,0,1.1,1.8,47,0.00,,,0.00,WUHU216HW,2013-05-13 02:20:00,
2013-05-12 21:25:00,44.1,24.6,30.05,North,0,0.2,1.8,46,0.00,,,0.00,WUHU216HW,2013-05-13 02:25:00,
2013-05-12 21:30:00,44.1,24.6,30.05,North,0,0.9,1.6,46,0.00,,,0.00,WUHU216HW,2013-05-13 02:30:00,
2013-05-12 21:35:00,44.5,24.8,30.05,North,0,0.7,1.6,46,0.00,,,0.00,WUHU216HW,2013-05-13 02:35:00,
2013-05-12 21:40:00,44.5,24.8,30.05,North,0,0.7,1.1,46,0.00,,,0.00,WUHU216HW,2013-05-13 02:40:00,
2013-05-12 21:45:00,44.1,24.6,30.06,NNW,338,0.2,1.1,46,0.00,,,0.00,WUHU216HW,2013-05-13 02:45:00,
2013-05-12 21:50:00,43.2,25.4,30.05,North,0,1.1,1.1,49,0.00,,,0.00,WUHU216HW,2013-05-13 02:50:00,
2013-05-12 21:55:00,42.5,26.1,30.06,NNE,23,1.3,1.8,52,0.00,,,0.00,WUHU216HW,2013-05-13 02:55:00,
2013-05-12 22:00:00,42.1,25.3,30.06,North,0,0.7,1.8,51,0.00,,,0.00,WUHU216HW,2013-05-13 03:00:00,
2013-05-12 22:05:00,41.4,25.5,30.06,North,0,0.9,1.8,53,0.00,,,0.00,WUHU216HW,2013-05-13 03:05:00,
2013-05-12 22:10:00,40.9,25.4,30.06,North,0,1.1,1.1,54,0.00,,,0.00,WUHU216HW,2013-05-13 03:10:00,
2013-05-12 22:15:00,40.3,24.8,30.06,NNW,338,0.4,1.1,54,0.00,,,0.00,WUHU216HW,2013-05-13 03:15:00,
2013-05-12 22:20:00,40.1,25.1,30.06,North,0,2.2,2.2,55,0.00,,,0.00,WUHU216HW,2013-05-13 03:20:00,
2013-05-12 22:25:00,39.8,25.7,30.06,NW,315,0.0,2.5,57,0.00,,,0.00,WUHU216HW,2013-05-13 03:25:00,
2013-05-12 22:30:00,39.8,26.1,30.06,NNE,23,1.1,2.5,58,0.00,,,0.00,WUHU216HW,2013-05-13 03:30:00,
2013-05-12 22:35:00,40.7,26.1,30.06,North,0,1.6,2.0,56,0.00,,,0.00,WUHU216HW,2013-05-13 03:35:00,
2013-05-12 22:40:00,41.2,26.2,30.06,NNW,338,1.6,2.5,55,0.00,,,0.00,WUHU216HW,2013-05-13 03:40:00,
2013-05-12 22:45:00,41.6,26.1,30.06,North,0,1.1,2.5,54,0.00,,,0.00,WUHU216HW,2013-05-13 03:45:00,
2013-05-12 22:50:00,41.6,26.1,30.06,North,0,0.2,1.8,54,0.00,,,0.00,WUHU216HW,2013-05-13 03:50:00,
2013-05-12 22:55:00,40.9,25.8,30.06,North,0,1.1,1.8,55,0.00,,,0.00,WUHU216HW,2013-05-13 03:55:00,
2013-05-12 23:00:00,40.7,26.1,30.06,North,0,0.9,1.8,56,0.00,,,0.00,WUHU216HW,2013-05-13 04:00:00,
2013-05-12 23:01:00,40.7,26.1,30.06,NNW,338,2.5,2.5,56,0.00,,,0.00,WUHU216HW,2013-05-13 04:01:00,
2013-05-12 23:06:00,41.0,26.0,30.06,North,0,1.3,2.5,55,0.00,,,0.00,WUHU216HW,2013-05-13 04:06:00,
2013-05-12 23:11:00,41.0,26.0,30.06,NNW,338,1.1,2.0,55,0.00,,,0.00,WUHU216HW,2013-05-13 04:11:00,
2013-05-12 23:16:00,40.7,25.7,30.06,North,0,0.2,2.0,55,0.00,,,0.00,WUHU216HW,2013-05-13 04:16:00,
2013-05-12 23:21:00,40.3,25.7,30.06,North,0,0.4,1.6,56,0.00,,,0.00,WUHU216HW,2013-05-13 04:21:00,
2013-05-12 23:26:00,39.8,25.7,30.06,North,0,0.4,1.6,57,0.00,,,0.00,WUHU216HW,2013-05-13 04:26:00,
2013-05-12 23:31:00,38.9,25.8,30.06,North,0,0.9,1.3,59,0.00,,,0.00,WUHU216HW,2013-05-13 04:31:00,
2013-05-12 23:36:00,38.2,25.5,30.06,North,0,0.0,1.3,60,0.00,,,0.00,WUHU216HW,2013-05-13 04:36:00,
2013-05-12 23:41:00,37.8,25.6,30.06,NNW,338,0.4,1.1,61,0.00,,,0.00,WUHU216HW,2013-05-13 04:41:00,
2013-05-12 23:46:00,37.3,25.5,30.06,North,0,0.7,1.3,62,0.00,,,0.00,WUHU216HW,2013-05-13 04:46:00,
2013-05-12 23:51:00,37.1,25.3,30.06,North,0,1.1,1.3,62,0.00,,,0.00,WUHU216HW,2013-05-13 04:51:00,
2013-05-12 23:56:00,36.7,25.7,30.06,North,0,1.1,1.3,64,0.00,,,0.00,WUHU216HW,2013-05-13 04:56:00,